Time;durP1;ratioP1;P1;durP2;ratioP2;P2;SDS_P1;SDS_P2;PMS_P1;PMS_P2;Temp;Humidity;BMP_temperature;BMP_pressure;BME280_temperature;BME280_humidity;BME280_pressure;Samples;Min_cycle;Max_cycle;Signal;HPM_P1;HPM_P2
2023/08/17 00:00:37;;;;;;;7.13;2.30;;;;;;;;;;5055223;28;20295;-34
2023/08/17 00:03:03;;;;;;;6.68;2.42;;;;;;;;;;5055286;28;20259;-34
2023/08/17 00:05:28;;;;;;;8.07;2.40;;;;;;;;;;5053654;28;20021;-35
2023/08/17 00:07:53;;;;;;;7.55;2.13;;;;;;;;;;5055457;28;20021;-35
2023/08/17 00:10:18;;;;;;;7.53;2.10;;;;;;;;;;5055325;28;20031;-34
2023/08/17 00:12:44;;;;;;;5.50;2.00;;;;;;;;;;5055025;28;20515;-34
2023/08/17 00:15:09;;;;;;;5.95;2.10;;;;;;;;;;5055274;28;20049;-35
2023/08/17 00:17:34;;;;;;;8.68;2.20;;;;;;;;;;5055485;28;20021;-34
2023/08/17 00:19:59;;;;;;;9.00;2.30;;;;;;;;;;5055164;28;20092;-35
2023/08/17 00:22:25;;;;;;;5.60;1.90;;;;;;;;;;5055183;28;20278;-35
2023/08/17 00:24:50;;;;;;;7.80;2.33;;;;;;;;;;5055085;28;20251;-35
2023/08/17 00:27:15;;;;;;;5.17;2.20;;;;;;;;;;5054775;28;20256;-34
2023/08/17 00:29:40;;;;;;;5.00;1.90;;;;;;;;;;5054701;28;20100;-34
2023/08/17 00:32:06;;;;;;;5.45;2.30;;;;;;;;;;5054658;28;20664;-34
2023/08/17 00:34:31;;;;;;;6.65;2.15;;;;;;;;;;5054891;28;20017;-34
2023/08/17 00:36:56;;;;;;;5.47;2.00;;;;;;;;;;5054546;28;20100;-35
2023/08/17 00:39:21;;;;;;;7.23;2.53;;;;;;;;;;5054783;28;20283;-35
2023/08/17 00:41:46;;;;;;;8.03;2.27;;;;;;;;;;5054542;28;20017;-34
2023/08/17 00:44:12;;;;;;;4.97;1.98;;;;;;;;;;5054731;28;20039;-35
2023/08/17 00:46:37;;;;;;;7.80;2.00;;;;;;;;;;5054439;28;20017;-35
2023/08/17 00:49:03;;;;;;;4.43;1.80;;;;;;;;;;5054321;28;20271;-35
2023/08/17 00:51:28;;;;;;;8.07;2.10;;;;;;;;;;5054589;28;20021;-35
2023/08/17 00:54:01;;;;;;;8.17;2.10;;;;;;;;;;5054495;28;20024;-35
2023/08/17 00:56:27;;;;;;;3.20;1.75;;;;;;;;;;5054511;28;20013;-35
2023/08/17 00:58:52;;;;;;;8.35;2.13;;;;;;;;;;5054024;28;20079;-34
2023/08/17 01:01:17;;;;;;;8.35;2.00;;;;;;;;;;5054394;28;20459;-35
2023/08/17 01:03:43;;;;;;;7.07;2.20;;;;;;;;;;5054089;28;20017;-35
2023/08/17 01:06:08;;;;;;;10.10;1.97;;;;;;;;;;5054619;28;20033;-35
2023/08/17 01:08:33;;;;;;;12.45;2.30;;;;;;;;;;5054787;28;20333;-35
2023/08/17 01:11:08;;;;;;;14.33;2.63;;;;;;;;;;5053814;28;20403;-35
2023/08/17 01:13:53;;;;;;;12.73;2.50;;;;;;;;;;5054184;28;20464;-35
2023/08/17 01:16:24;;;;;;;5.70;2.05;;;;;;;;;;5053481;28;20012;-35
2023/08/17 01:18:50;;;;;;;10.95;2.40;;;;;;;;;;5054302;28;20413;-35
2023/08/17 01:21:16;;;;;;;8.80;2.38;;;;;;;;;;5053740;28;20096;-35
2023/08/17 01:23:44;;;;;;;7.72;1.92;;;;;;;;;;5053723;28;20028;-35
2023/08/17 01:26:09;;;;;;;8.02;2.17;;;;;;;;;;5054314;28;20029;-35
2023/08/17 01:28:34;;;;;;;4.87;2.07;;;;;;;;;;5054821;28;20351;-35
2023/08/17 01:31:11;;;;;;;6.63;2.27;;;;;;;;;;5054372;28;20036;-35
2023/08/17 01:33:55;;;;;;;8.68;2.50;;;;;;;;;;5053575;28;20287;-35
2023/08/17 01:36:31;;;;;;;9.73;2.40;;;;;;;;;;5053540;28;20024;-35
2023/08/17 01:38:56;;;;;;;8.52;2.95;;;;;;;;;;5053464;28;20029;-35
2023/08/17 01:41:22;;;;;;;5.43;2.25;;;;;;;;;;5053780;28;20345;-35
2023/08/17 01:43:48;;;;;;;6.95;2.50;;;;;;;;;;5053527;28;20028;-35
2023/08/17 01:46:16;;;;;;;5.85;2.40;;;;;;;;;;5053713;28;20431;-33
2023/08/17 01:48:42;;;;;;;5.43;2.33;;;;;;;;;;5053590;28;20520;-34
2023/08/17 01:51:07;;;;;;;7.63;2.30;;;;;;;;;;5053346;28;20057;-34
2023/08/17 01:53:32;;;;;;;8.32;2.42;;;;;;;;;;5053650;28;20021;-33
2023/08/17 01:55:57;;;;;;;5.60;2.07;;;;;;;;;;5053289;28;20017;-34
2023/08/17 01:58:23;;;;;;;6.50;2.60;;;;;;;;;;5053202;28;20282;-33
2023/08/17 02:00:48;;;;;;;7.20;2.40;;;;;;;;;;5053263;28;20623;-34
2023/08/17 02:03:13;;;;;;;7.10;2.33;;;;;;;;;;5053741;28;20350;-34
2023/08/17 02:05:38;;;;;;;5.47;2.33;;;;;;;;;;5053182;28;20394;-34
2023/08/17 02:08:03;;;;;;;3.88;2.08;;;;;;;;;;5053184;28;20248;-34
2023/08/17 02:10:29;;;;;;;8.23;2.50;;;;;;;;;;5053141;28;20032;-35
2023/08/17 02:12:54;;;;;;;9.57;2.28;;;;;;;;;;5051797;28;20049;-35
2023/08/17 02:15:19;;;;;;;5.70;2.35;;;;;;;;;;5053415;28;20024;-35
2023/08/17 02:17:44;;;;;;;5.77;2.30;;;;;;;;;;5053116;28;20024;-34
2023/08/17 02:20:10;;;;;;;9.77;2.83;;;;;;;;;;5053358;28;20251;-34
2023/08/17 02:22:35;;;;;;;7.25;2.20;;;;;;;;;;5053389;28;20332;-34
2023/08/17 02:25:00;;;;;;;5.20;2.20;;;;;;;;;;5053544;28;20413;-35
2023/08/17 02:27:26;;;;;;;5.63;2.40;;;;;;;;;;5054327;28;20028;-34
2023/08/17 02:29:51;;;;;;;6.07;2.30;;;;;;;;;;5056895;28;20044;-34
2023/08/17 02:32:17;;;;;;;9.50;2.78;;;;;;;;;;5056885;28;20375;-35
2023/08/17 02:34:42;;;;;;;8.23;2.50;;;;;;;;;;5056948;28;20013;-34
2023/08/17 02:37:07;;;;;;;6.00;2.50;;;;;;;;;;5057112;28;20500;-34
2023/08/17 02:39:32;;;;;;;9.02;2.50;;;;;;;;;;5057018;28;20484;-35
2023/08/17 02:41:57;;;;;;;7.32;2.20;;;;;;;;;;5056786;28;20488;-35
2023/08/17 02:44:23;;;;;;;9.60;2.50;;;;;;;;;;5056732;28;20356;-35
2023/08/17 02:46:48;;;;;;;8.33;2.40;;;;;;;;;;5056727;28;20260;-35
2023/08/17 02:49:13;;;;;;;6.28;2.65;;;;;;;;;;5056579;28;20258;-34
2023/08/17 02:51:38;;;;;;;7.57;2.30;;;;;;;;;;5057074;28;20036;-34
2023/08/17 02:54:04;;;;;;;5.68;2.30;;;;;;;;;;5057250;28;20275;-35
2023/08/17 02:56:29;;;;;;;5.93;2.45;;;;;;;;;;5056472;28;20066;-34
2023/08/17 02:58:54;;;;;;;10.57;2.33;;;;;;;;;;5056933;28;20047;-34
2023/08/17 03:01:19;;;;;;;5.10;2.20;;;;;;;;;;5056516;28;20275;-34
2023/08/17 03:03:44;;;;;;;5.80;2.13;;;;;;;;;;5056322;28;20252;-34
2023/08/17 03:06:10;;;;;;;11.20;2.27;;;;;;;;;;5056487;28;20032;-34
2023/08/17 03:08:35;;;;;;;7.15;2.50;;;;;;;;;;5056345;28;20279;-34
2023/08/17 03:11:00;;;;;;;7.83;2.30;;;;;;;;;;5056061;28;20025;-34
2023/08/17 03:13:25;;;;;;;5.85;2.10;;;;;;;;;;5056480;28;20074;-34
2023/08/17 03:15:51;;;;;;;5.75;2.08;;;;;;;;;;5056422;28;20363;-34
2023/08/17 03:18:16;;;;;;;7.07;2.10;;;;;;;;;;5056282;28;20024;-34
2023/08/17 03:20:41;;;;;;;7.20;2.22;;;;;;;;;;5054703;28;20291;-34
2023/08/17 03:23:08;;;;;;;10.20;2.30;;;;;;;;;;5056327;28;20047;-34
2023/08/17 03:25:33;;;;;;;7.28;2.25;;;;;;;;;;5056922;28;20267;-34
2023/08/17 03:27:59;;;;;;;8.27;2.00;;;;;;;;;;5056215;28;20021;-34
2023/08/17 03:30:24;;;;;;;5.95;2.20;;;;;;;;;;5055811;28;20375;-34
2023/08/17 03:32:49;;;;;;;9.27;2.10;;;;;;;;;;5055840;28;20365;-34
2023/08/17 03:35:14;;;;;;;5.93;2.30;;;;;;;;;;5055710;28;20267;-34
2023/08/17 03:37:39;;;;;;;8.63;2.50;;;;;;;;;;5055971;28;20271;-35
2023/08/17 03:40:05;;;;;;;8.50;2.77;;;;;;;;;;5055352;28;20251;-36
2023/08/17 03:42:30;;;;;;;9.38;2.40;;;;;;;;;;5055594;28;20294;-34
2023/08/17 03:44:56;;;;;;;7.00;2.20;;;;;;;;;;5055645;28;20372;-34
2023/08/17 03:47:21;;;;;;;7.30;2.17;;;;;;;;;;5055445;28;20048;-34
2023/08/17 03:49:47;;;;;;;4.82;2.00;;;;;;;;;;5055778;28;20044;-34
2023/08/17 03:52:12;;;;;;;5.35;2.22;;;;;;;;;;5055402;28;20071;-35
2023/08/17 03:54:37;;;;;;;4.88;2.03;;;;;;;;;;5056014;28;20063;-34
2023/08/17 03:57:02;;;;;;;7.27;2.07;;;;;;;;;;5055605;28;20031;-34
2023/08/17 03:59:27;;;;;;;9.48;2.25;;;;;;;;;;5055495;28;20098;-34
2023/08/17 04:01:53;;;;;;;8.43;2.17;;;;;;;;;;5055261;28;20024;-34
2023/08/17 04:04:18;;;;;;;6.10;1.95;;;;;;;;;;5055493;28;20021;-34
2023/08/17 04:06:43;;;;;;;6.43;2.20;;;;;;;;;;5055249;28;20049;-34
2023/08/17 04:09:09;;;;;;;7.33;2.20;;;;;;;;;;5055173;28;20025;-35
2023/08/17 04:11:37;;;;;;;6.97;2.25;;;;;;;;;;5054911;28;20761;-34
2023/08/17 04:14:02;;;;;;;6.18;2.08;;;;;;;;;;5055409;28;20474;-34
2023/08/17 04:16:28;;;;;;;6.70;1.98;;;;;;;;;;5055265;28;20056;-35
2023/08/17 04:18:53;;;;;;;6.17;2.43;;;;;;;;;;5055172;28;20485;-35
2023/08/17 04:21:18;;;;;;;10.43;2.30;;;;;;;;;;5053740;28;20259;-35
2023/08/17 04:23:43;;;;;;;6.22;2.00;;;;;;;;;;5054763;28;20460;-35
2023/08/17 04:26:09;;;;;;;6.20;2.10;;;;;;;;;;5055361;28;20025;-35
2023/08/17 04:28:34;;;;;;;6.40;2.10;;;;;;;;;;5055001;28;20339;-34
2023/08/17 04:30:59;;;;;;;5.77;2.00;;;;;;;;;;5055177;28;20374;-35
2023/08/17 04:33:24;;;;;;;4.90;1.80;;;;;;;;;;5054976;28;20263;-35
2023/08/17 04:35:49;;;;;;;8.50;2.27;;;;;;;;;;5054934;28;20371;-34
2023/08/17 04:38:15;;;;;;;5.80;2.03;;;;;;;;;;5054501;28;20770;-34
2023/08/17 04:40:40;;;;;;;6.33;2.23;;;;;;;;;;5054514;28;20259;-34
2023/08/17 04:43:05;;;;;;;5.43;1.88;;;;;;;;;;5054753;28;20295;-34
2023/08/17 04:45:30;;;;;;;5.10;1.90;;;;;;;;;;5054478;28;20517;-34
2023/08/17 04:47:55;;;;;;;4.83;1.87;;;;;;;;;;5054323;28;20259;-35
2023/08/17 04:50:21;;;;;;;6.07;1.95;;;;;;;;;;5053846;28;20263;-35
2023/08/17 04:52:46;;;;;;;4.30;1.98;;;;;;;;;;5054061;28;20100;-35
2023/08/17 04:55:12;;;;;;;11.63;2.25;;;;;;;;;;5054523;28;20032;-34
2023/08/17 04:57:37;;;;;;;9.43;2.35;;;;;;;;;;5054390;28;20120;-35
2023/08/17 05:00:03;;;;;;;4.53;1.70;;;;;;;;;;5054653;28;20013;-35
2023/08/17 05:02:28;;;;;;;6.72;2.15;;;;;;;;;;5054121;28;20279;-35
2023/08/17 05:04:53;;;;;;;7.78;2.00;;;;;;;;;;5054032;28;20055;-35
2023/08/17 05:07:18;;;;;;;7.63;2.10;;;;;;;;;;5054584;28;20109;-35
2023/08/17 05:09:44;;;;;;;8.50;2.10;;;;;;;;;;5053984;28;20722;-35
2023/08/17 05:12:09;;;;;;;8.10;2.13;;;;;;;;;;5053718;28;20098;-34
2023/08/17 05:14:34;;;;;;;6.35;1.88;;;;;;;;;;5054166;28;20100;-35
2023/08/17 05:16:59;;;;;;;7.70;2.00;;;;;;;;;;5053910;28;20496;-34
2023/08/17 05:19:25;;;;;;;7.33;2.07;;;;;;;;;;5054269;28;20116;-34
2023/08/17 05:21:51;;;;;;;10.15;1.88;;;;;;;;;;5054067;28;20291;-34
2023/08/17 05:24:16;;;;;;;9.60;2.20;;;;;;;;;;5053981;28;20028;-34
2023/08/17 05:26:41;;;;;;;8.18;2.20;;;;;;;;;;5053950;28;20372;-33
2023/08/17 05:29:06;;;;;;;6.77;2.10;;;;;;;;;;5053651;28;20045;-34
2023/08/17 05:31:32;;;;;;;6.70;2.40;;;;;;;;;;5053788;28;20376;-34
2023/08/17 05:33:57;;;;;;;7.20;2.33;;;;;;;;;;5053836;28;20575;-34
2023/08/17 05:36:22;;;;;;;6.70;2.13;;;;;;;;;;5053499;28;20154;-35
2023/08/17 05:38:47;;;;;;;7.20;2.10;;;;;;;;;;5053430;28;20033;-34
2023/08/17 05:41:12;;;;;;;4.85;2.08;;;;;;;;;;5052853;28;20264;-34
2023/08/17 05:43:37;;;;;;;5.03;2.07;;;;;;;;;;5053225;28;20021;-34
2023/08/17 05:46:03;;;;;;;6.37;2.57;;;;;;;;;;5053682;28;20255;-34
2023/08/17 05:48:28;;;;;;;7.80;2.20;;;;;;;;;;5053394;28;20760;-34
2023/08/17 05:50:55;;;;;;;7.57;2.20;;;;;;;;;;5053857;28;20071;-34
2023/08/17 05:53:20;;;;;;;10.75;2.47;;;;;;;;;;5053316;28;20045;-35
2023/08/17 05:55:45;;;;;;;9.87;2.10;;;;;;;;;;5053635;28;20025;-35
2023/08/17 05:58:10;;;;;;;9.83;2.30;;;;;;;;;;5053259;28;20413;-35
2023/08/17 06:00:35;;;;;;;14.87;2.83;;;;;;;;;;5053283;28;20243;-35
2023/08/17 06:03:01;;;;;;;9.63;2.37;;;;;;;;;;5057112;28;20254;-35
2023/08/17 06:05:30;;;;;;;6.35;2.38;;;;;;;;;;5060129;28;20583;-35
2023/08/17 06:07:55;;;;;;;7.10;2.33;;;;;;;;;;5060431;28;20013;-35
2023/08/17 06:10:24;;;;;;;9.55;2.40;;;;;;;;;;5059831;28;20025;-35
2023/08/17 06:12:50;;;;;;;6.95;2.88;;;;;;;;;;5059734;28;20491;-34
2023/08/17 06:15:15;;;;;;;6.90;2.50;;;;;;;;;;5060318;28;20028;-34
2023/08/17 06:17:40;;;;;;;8.47;2.53;;;;;;;;;;5059603;28;20317;-35
2023/08/17 06:20:09;;;;;;;7.10;2.67;;;;;;;;;;5059737;28;20256;-35
2023/08/17 06:22:34;;;;;;;6.25;2.60;;;;;;;;;;5059727;28;20017;-35
2023/08/17 06:25:00;;;;;;;8.43;3.00;;;;;;;;;;5059958;28;20031;-35
2023/08/17 06:27:25;;;;;;;10.15;2.78;;;;;;;;;;5059606;28;20734;-35
2023/08/17 06:29:50;;;;;;;6.33;2.50;;;;;;;;;;5060134;28;20075;-35
2023/08/17 06:32:16;;;;;;;6.47;2.60;;;;;;;;;;5059934;28;20610;-35
2023/08/17 06:34:41;;;;;;;10.05;2.80;;;;;;;;;;5059683;28;20017;-34
2023/08/17 06:37:06;;;;;;;8.75;2.40;;;;;;;;;;5059926;28;20020;-35
2023/08/17 06:39:32;;;;;;;7.85;2.38;;;;;;;;;;5059737;28;20021;-34
2023/08/17 06:41:57;;;;;;;7.50;2.58;;;;;;;;;;5059549;28;20520;-34
2023/08/17 06:44:23;;;;;;;7.35;2.20;;;;;;;;;;5059496;28;20020;-34
2023/08/17 06:46:48;;;;;;;11.88;2.67;;;;;;;;;;5059717;28;20013;-34
2023/08/17 06:49:13;;;;;;;12.47;2.47;;;;;;;;;;5059541;28;20028;-34
2023/08/17 06:51:39;;;;;;;8.17;2.30;;;;;;;;;;5060104;28;20035;-34
2023/08/17 06:54:04;;;;;;;10.40;2.30;;;;;;;;;;5059503;28;20658;-35
2023/08/17 06:56:30;;;;;;;5.00;2.15;;;;;;;;;;5059394;28;20474;-35
2023/08/17 06:58:55;;;;;;;7.53;2.40;;;;;;;;;;5059663;28;20021;-35
2023/08/17 07:01:20;;;;;;;8.80;1.90;;;;;;;;;;5059351;28;20084;-35
2023/08/17 07:03:45;;;;;;;7.30;2.20;;;;;;;;;;5059373;28;20062;-35
2023/08/17 07:06:10;;;;;;;6.97;2.30;;;;;;;;;;5059270;28;20507;-35
2023/08/17 07:08:35;;;;;;;8.90;2.20;;;;;;;;;;5059522;28;20013;-35
2023/08/17 07:11:01;;;;;;;8.20;2.13;;;;;;;;;;5059617;28;20291;-35
2023/08/17 07:13:26;;;;;;;7.97;2.03;;;;;;;;;;5058727;28;20078;-35
2023/08/17 07:15:51;;;;;;;9.40;2.03;;;;;;;;;;5056079;28;20020;-35
2023/08/17 07:18:16;;;;;;;8.80;2.05;;;;;;;;;;5055973;28;20116;-35
2023/08/17 07:20:42;;;;;;;6.63;2.03;;;;;;;;;;5056328;28;20024;-35
2023/08/17 07:23:07;;;;;;;6.63;2.17;;;;;;;;;;5055957;28;20021;-35
2023/08/17 07:25:32;;;;;;;9.30;2.10;;;;;;;;;;5056448;28;20251;-34
2023/08/17 07:27:58;;;;;;;6.78;1.80;;;;;;;;;;5056146;28;20017;-35
2023/08/17 07:30:23;;;;;;;5.80;1.90;;;;;;;;;;5056073;28;20456;-35
2023/08/17 07:32:48;;;;;;;7.45;2.13;;;;;;;;;;5056802;28;20032;-34
2023/08/17 07:35:13;;;;;;;6.27;1.90;;;;;;;;;;5055807;28;20052;-34
2023/08/17 07:37:39;;;;;;;6.10;2.00;;;;;;;;;;5055558;28;20040;-34
2023/08/17 07:40:04;;;;;;;6.83;2.20;;;;;;;;;;5055634;28;20258;-34
2023/08/17 07:42:30;;;;;;;5.97;1.98;;;;;;;;;;5055512;28;20376;-34
2023/08/17 07:44:55;;;;;;;7.95;2.30;;;;;;;;;;5055561;28;20013;-34
2023/08/17 07:47:20;;;;;;;9.23;2.30;;;;;;;;;;5056012;28;20013;-34
2023/08/17 07:49:45;;;;;;;11.77;2.47;;;;;;;;;;5055745;28;20024;-34
2023/08/17 07:52:11;;;;;;;7.35;1.90;;;;;;;;;;5056209;28;20255;-34
2023/08/17 07:54:36;;;;;;;6.50;1.83;;;;;;;;;;5055269;28;20028;-35
2023/08/17 07:57:03;;;;;;;8.10;1.93;;;;;;;;;;5055906;28;20259;-35
2023/08/17 07:59:28;;;;;;;9.98;2.42;;;;;;;;;;5055507;28;20029;-33
2023/08/17 08:01:53;;;;;;;5.43;2.03;;;;;;;;;;5055275;28;20484;-35
2023/08/17 08:04:18;;;;;;;8.30;2.40;;;;;;;;;;5055516;28;20029;-35
2023/08/17 08:06:43;;;;;;;5.07;2.10;;;;;;;;;;5055733;28;20118;-35
2023/08/17 08:09:09;;;;;;;10.67;2.10;;;;;;;;;;5055168;28;20021;-35
2023/08/17 08:11:34;;;;;;;6.57;2.00;;;;;;;;;;5054937;28;20323;-35
2023/08/17 08:13:59;;;;;;;6.90;2.00;;;;;;;;;;5055041;28;20025;-35
2023/08/17 08:16:24;;;;;;;6.50;2.03;;;;;;;;;;5055211;28;20259;-35
2023/08/17 08:18:49;;;;;;;7.53;1.97;;;;;;;;;;5055113;28;20056;-35
2023/08/17 08:21:15;;;;;;;8.47;2.20;;;;;;;;;;5054853;28;20527;-35
2023/08/17 08:23:40;;;;;;;8.27;2.27;;;;;;;;;;5054846;28;20075;-35
2023/08/17 08:26:05;;;;;;;4.87;1.90;;;;;;;;;;5054929;28;20266;-35
2023/08/17 08:28:30;;;;;;;8.00;2.10;;;;;;;;;;5054993;28;20025;-35
2023/08/17 08:31:00;;;;;;;8.63;2.20;;;;;;;;;;5054663;28;20017;-35
2023/08/17 08:33:26;;;;;;;7.82;2.00;;;;;;;;;;5054906;28;20020;-35
2023/08/17 08:35:52;;;;;;;5.40;2.10;;;;;;;;;;5054571;28;20017;-36
2023/08/17 08:38:17;;;;;;;9.00;1.90;;;;;;;;;;5055181;28;20021;-35
2023/08/17 08:40:43;;;;;;;5.27;1.93;;;;;;;;;;5055148;28;20021;-35
2023/08/17 08:43:09;;;;;;;6.38;2.10;;;;;;;;;;5054546;28;20182;-35
2023/08/17 08:45:35;;;;;;;8.07;2.30;;;;;;;;;;5054704;28;20371;-35
2023/08/17 08:48:01;;;;;;;5.38;1.92;;;;;;;;;;5054386;28;20506;-34
2023/08/17 08:50:30;;;;;;;6.88;1.88;;;;;;;;;;5054364;28;20021;-34
2023/08/17 08:52:59;;;;;;;6.90;2.10;;;;;;;;;;5054579;28;20465;-35
2023/08/17 08:55:27;;;;;;;9.02;2.20;;;;;;;;;;5054556;28;20026;-35
2023/08/17 08:57:53;;;;;;;5.82;2.08;;;;;;;;;;5054171;28;20428;-35
2023/08/17 09:00:19;;;;;;;6.47;2.10;;;;;;;;;;5054119;28;20194;-35
2023/08/17 09:02:45;;;;;;;11.10;1.80;;;;;;;;;;5054153;28;20036;-35
2023/08/17 09:05:10;;;;;;;5.72;1.80;;;;;;;;;;5053996;28;20468;-35
2023/08/17 09:07:36;;;;;;;7.72;1.83;;;;;;;;;;5054259;28;20063;-35
2023/08/17 09:10:03;;;;;;;7.38;1.95;;;;;;;;;;5054003;28;20021;-36
2023/08/17 09:12:29;;;;;;;7.93;2.00;;;;;;;;;;5053816;28;20052;-35
2023/08/17 09:14:54;;;;;;;6.65;2.03;;;;;;;;;;5054379;28;20357;-35
2023/08/17 09:17:23;;;;;;;9.52;2.22;;;;;;;;;;5054168;28;20096;-35
2023/08/17 09:19:48;;;;;;;8.68;2.10;;;;;;;;;;5054271;28;20108;-35
2023/08/17 09:22:13;;;;;;;7.33;2.13;;;;;;;;;;5053768;28;20106;-35
2023/08/17 09:24:39;;;;;;;6.97;2.28;;;;;;;;;;5054296;28;20271;-34
2023/08/17 09:27:04;;;;;;;10.97;2.27;;;;;;;;;;5054304;28;20017;-34
2023/08/17 09:29:33;;;;;;;7.47;2.22;;;;;;;;;;5053849;28;20418;-35
2023/08/17 09:31:58;;;;;;;8.00;2.33;;;;;;;;;;5054624;28;20052;-35
2023/08/17 09:34:24;;;;;;;9.63;2.20;;;;;;;;;;5053828;28;20020;-34
2023/08/17 09:36:49;;;;;;;7.57;2.00;;;;;;;;;;5053516;28;20025;-35
2023/08/17 09:39:18;;;;;;;8.43;1.60;;;;;;;;;;5053686;28;20025;-35
2023/08/17 09:41:43;;;;;;;8.18;1.73;;;;;;;;;;5053299;28;20020;-35
2023/08/17 09:44:09;;;;;;;9.07;2.00;;;;;;;;;;5053364;28;20166;-36
2023/08/17 09:46:34;;;;;;;7.55;1.90;;;;;;;;;;5053364;28;20020;-35
2023/08/17 09:49:01;;;;;;;5.28;1.63;;;;;;;;;;5053673;28;20074;-35
2023/08/17 09:51:27;;;;;;;10.48;2.00;;;;;;;;;;5053353;28;20399;-36
2023/08/17 09:53:53;;;;;;;6.40;1.90;;;;;;;;;;5053863;28;20021;-35
2023/08/17 09:56:19;;;;;;;6.60;2.05;;;;;;;;;;5053566;28;20494;-35
2023/08/17 09:58:44;;;;;;;15.23;2.15;;;;;;;;;;5053024;28;20025;-35
2023/08/17 10:01:10;;;;;;;11.13;2.40;;;;;;;;;;5053988;28;20109;-34
2023/08/17 10:03:37;;;;;;;9.68;2.00;;;;;;;;;;5053207;28;20264;-34
2023/08/17 10:06:06;;;;;;;6.85;2.10;;;;;;;;;;5053424;28;20015;-34
2023/08/17 10:08:33;;;;;;;6.82;2.08;;;;;;;;;;5053411;28;20029;-34
2023/08/17 10:10:59;;;;;;;6.85;2.10;;;;;;;;;;5053000;28;20053;-34
2023/08/17 10:13:42;;;;;;;17.10;2.65;;;;;;;;;;5053358;28;20021;-34
2023/08/17 10:16:08;;;;;;;;;;;;;;;;;;5054047;28;20021;-35
2023/08/17 10:18:33;;;;;;;5.18;2.05;;;;;;;;;;5052918;28;19939;-34
2023/08/17 10:21:01;;;;;;;8.30;2.57;;;;;;;;;;5053668;28;20013;-35
2023/08/17 10:23:27;;;;;;;5.68;2.40;;;;;;;;;;5053397;28;20027;-35
2023/08/17 10:25:53;;;;;;;4.40;2.13;;;;;;;;;;5053032;28;20464;-34
2023/08/17 10:28:19;;;;;;;12.95;2.72;;;;;;;;;;5053139;28;20020;-34
2023/08/17 10:30:45;;;;;;;10.60;2.35;;;;;;;;;;5052448;28;20017;-35
2023/08/17 10:33:10;;;;;;;8.43;2.60;;;;;;;;;;5052439;28;20025;-36
2023/08/17 10:35:36;;;;;;;8.13;2.40;;;;;;;;;;5052496;28;20021;-35
2023/08/17 10:38:03;;;;;;;6.25;2.35;;;;;;;;;;5052563;28;20637;-35
2023/08/17 10:40:28;;;;;;;11.77;2.80;;;;;;;;;;5052616;28;20017;-35
2023/08/17 10:42:55;;;;;;;6.82;2.20;;;;;;;;;;5052437;28;20376;-35
2023/08/17 10:45:38;;;;;;;13.35;2.70;;;;;;;;;;5052813;28;20021;-35
2023/08/17 10:48:09;;;;;;;7.15;2.22;;;;;;;;;;5053093;28;20029;-34
2023/08/17 10:50:35;;;;;;;9.07;2.47;;;;;;;;;;5055637;28;20377;-34
2023/08/17 10:53:10;;;;;;;6.72;2.38;;;;;;;;;;5056659;28;20025;-35
2023/08/17 10:55:44;;;;;;;7.28;2.88;;;;;;;;;;5056586;28;20028;-34
2023/08/17 10:58:10;;;;;;;8.88;2.83;;;;;;;;;;5056409;28;20020;-34
2023/08/17 11:00:36;;;;;;;8.98;3.05;;;;;;;;;;5056685;28;20114;-34
2023/08/17 11:03:05;;;;;;;12.40;3.15;;;;;;;;;;5056345;28;20025;-34
2023/08/17 11:05:40;;;;;;;7.43;2.85;;;;;;;;;;5056908;28;20043;-35
2023/08/17 11:08:05;;;;;;;11.68;3.15;;;;;;;;;;5056868;28;20021;-35
2023/08/17 11:10:31;;;;;;;9.88;3.13;;;;;;;;;;5056536;28;20078;-35
2023/08/17 11:12:59;;;;;;;8.18;3.15;;;;;;;;;;5056030;28;20496;-35
2023/08/17 11:15:26;;;;;;;6.13;2.85;;;;;;;;;;5056444;28;20049;-35
2023/08/17 11:17:52;;;;;;;8.57;3.03;;;;;;;;;;5056318;28;20088;-34
2023/08/17 11:20:17;;;;;;;7.07;2.70;;;;;;;;;;5054791;28;20105;-34
2023/08/17 11:22:42;;;;;;;5.78;2.78;;;;;;;;;;5056504;28;20025;-34
2023/08/17 11:25:08;;;;;;;9.77;3.03;;;;;;;;;;5055945;28;20375;-34
2023/08/17 11:27:33;;;;;;;6.82;2.90;;;;;;;;;;5055829;28;20079;-33
2023/08/17 11:29:59;;;;;;;6.75;2.95;;;;;;;;;;5055738;28;20021;-35
2023/08/17 11:32:24;;;;;;;9.13;3.10;;;;;;;;;;5056064;28;20021;-35
2023/08/17 11:34:49;;;;;;;9.20;2.83;;;;;;;;;;5056127;28;20364;-34
2023/08/17 11:37:15;;;;;;;7.67;3.23;;;;;;;;;;5055651;28;20809;-34
2023/08/17 11:39:41;;;;;;;7.65;3.42;;;;;;;;;;5055532;28;20279;-34
2023/08/17 11:42:06;;;;;;;16.77;3.20;;;;;;;;;;5055699;28;20013;-35
2023/08/17 11:44:32;;;;;;;11.70;3.50;;;;;;;;;;5055614;28;20243;-35
2023/08/17 11:46:57;;;;;;;9.55;2.70;;;;;;;;;;5055863;28;20014;-35
2023/08/17 11:49:23;;;;;;;8.33;3.00;;;;;;;;;;5055491;28;20430;-34
2023/08/17 11:51:49;;;;;;;12.57;3.20;;;;;;;;;;5055798;28;20271;-35
2023/08/17 11:54:14;;;;;;;9.77;3.13;;;;;;;;;;5055428;28;20387;-34
2023/08/17 11:56:39;;;;;;;7.53;3.30;;;;;;;;;;5055394;28;20021;-35
2023/08/17 11:59:09;;;;;;;11.98;3.33;;;;;;;;;;5055284;28;20025;-35
2023/08/17 12:01:35;;;;;;;9.75;2.85;;;;;;;;;;5054807;28;20091;-34
2023/08/17 12:04:00;;;;;;;7.03;2.90;;;;;;;;;;5055236;28;20035;-36
2023/08/17 12:06:25;;;;;;;17.63;3.60;;;;;;;;;;5055249;28;20021;-33
2023/08/17 12:08:51;;;;;;;6.35;2.92;;;;;;;;;;5055487;28;20021;-35
2023/08/17 12:11:17;;;;;;;13.38;3.58;;;;;;;;;;5053692;28;20044;-35
2023/08/17 12:13:43;;;;;;;10.00;3.28;;;;;;;;;;5055389;28;20021;-35
2023/08/17 12:16:14;;;;;;;9.93;3.20;;;;;;;;;;5056125;28;20060;-37
2023/08/17 12:18:39;;;;;;;8.98;3.30;;;;;;;;;;5055423;28;20032;-34
2023/08/17 12:21:04;;;;;;;12.90;3.17;;;;;;;;;;5055246;28;20465;-34
2023/08/17 12:23:29;;;;;;;7.72;3.17;;;;;;;;;;5055119;28;20017;-34
2023/08/17 12:25:55;;;;;;;7.95;2.70;;;;;;;;;;5054795;28;20066;-43
2023/08/17 12:28:21;;;;;;;9.70;3.22;;;;;;;;;;5054732;28;20028;-34
2023/08/17 12:30:46;;;;;;;8.75;2.97;;;;;;;;;;5054887;28;20115;-34
2023/08/17 12:33:12;;;;;;;8.00;3.30;;;;;;;;;;5054699;28;20535;-37
2023/08/17 12:35:37;;;;;;;9.67;3.43;;;;;;;;;;5054613;28;20267;-34
2023/08/17 12:38:02;;;;;;;7.13;2.90;;;;;;;;;;5054726;28;20082;-34
2023/08/17 12:40:27;;;;;;;7.23;2.83;;;;;;;;;;5053185;28;20671;-34
2023/08/17 12:42:52;;;;;;;10.30;3.00;;;;;;;;;;5054392;28;20646;-34
2023/08/17 12:45:18;;;;;;;9.25;3.70;;;;;;;;;;5054325;28;20743;-35
2023/08/17 12:47:43;;;;;;;9.33;3.37;;;;;;;;;;5054941;28;20009;-39
2023/08/17 12:50:08;;;;;;;8.20;3.50;;;;;;;;;;5053100;28;20023;-35
2023/08/17 12:52:34;;;;;;;10.38;3.63;;;;;;;;;;5054248;28;20350;-34
2023/08/17 12:54:59;;;;;;;12.40;3.67;;;;;;;;;;5055119;28;20360;-35
2023/08/17 12:57:24;;;;;;;8.68;3.72;;;;;;;;;;5054479;28;20017;-34
2023/08/17 12:59:49;;;;;;;9.10;3.10;;;;;;;;;;5054030;28;20117;-34
2023/08/17 13:02:15;;;;;;;6.78;3.25;;;;;;;;;;5054716;28;20021;-34
2023/08/17 13:04:41;;;;;;;8.90;3.53;;;;;;;;;;5054088;28;20418;-34
2023/08/17 13:07:06;;;;;;;7.47;3.50;;;;;;;;;;5054023;28;20274;-35
2023/08/17 13:09:31;;;;;;;10.47;3.83;;;;;;;;;;5053985;28;20375;-35
2023/08/17 13:11:56;;;;;;;7.57;3.30;;;;;;;;;;5053095;28;20053;-35
2023/08/17 13:14:22;;;;;;;12.17;3.60;;;;;;;;;;5054110;28;20256;-39
2023/08/17 13:16:48;;;;;;;11.05;3.65;;;;;;;;;;5053879;28;20096;-34
2023/08/17 13:19:14;;;;;;;8.50;3.95;;;;;;;;;;5054112;28;20032;-34
2023/08/17 13:21:39;;;;;;;7.77;3.30;;;;;;;;;;5054012;28;20025;-34
2023/08/17 13:24:04;;;;;;;11.67;3.50;;;;;;;;;;5054198;28;20255;-34
2023/08/17 13:26:30;;;;;;;10.63;3.60;;;;;;;;;;5053601;28;20279;-35
2023/08/17 13:28:55;;;;;;;6.60;3.72;;;;;;;;;;5053596;28;20025;-35
2023/08/17 13:31:20;;;;;;;7.60;3.60;;;;;;;;;;5053571;28;20017;-34
2023/08/17 13:33:46;;;;;;;8.97;3.60;;;;;;;;;;5053650;28;20463;-35
2023/08/17 13:36:11;;;;;;;8.38;3.03;;;;;;;;;;5054320;28;20021;-35
2023/08/17 13:38:38;;;;;;;8.07;3.50;;;;;;;;;;5053389;28;20067;-34
2023/08/17 13:41:03;;;;;;;10.90;3.60;;;;;;;;;;5053807;28;20431;-34
2023/08/17 13:43:29;;;;;;;7.68;3.35;;;;;;;;;;5054148;28;20049;-34
2023/08/17 13:45:54;;;;;;;8.67;3.50;;;;;;;;;;5053960;28;20071;-34
2023/08/17 13:48:19;;;;;;;7.67;2.80;;;;;;;;;;5053998;28;20040;-34
2023/08/17 13:50:44;;;;;;;8.10;3.27;;;;;;;;;;5053904;28;20021;-35
2023/08/17 13:53:10;;;;;;;6.15;2.90;;;;;;;;;;5053668;28;20033;-35
2023/08/17 13:55:35;;;;;;;4.90;2.60;;;;;;;;;;5053479;28;20494;-34
2023/08/17 13:58:00;;;;;;;11.38;2.90;;;;;;;;;;5053500;28;20096;-35
2023/08/17 14:00:26;;;;;;;6.33;3.00;;;;;;;;;;5053383;28;20017;-34
2023/08/17 14:02:52;;;;;;;7.25;3.05;;;;;;;;;;5053279;28;20263;-36
2023/08/17 14:05:17;;;;;;;6.50;3.00;;;;;;;;;;5052561;28;20013;-34
2023/08/17 14:07:42;;;;;;;6.60;3.10;;;;;;;;;;5052777;28;20071;-34
2023/08/17 14:10:07;;;;;;;7.07;3.07;;;;;;;;;;5053081;28;20376;-35
2023/08/17 14:12:33;;;;;;;8.38;3.03;;;;;;;;;;5050957;28;20075;-35
2023/08/17 14:14:59;;;;;;;9.82;3.20;;;;;;;;;;5052128;28;20082;-34
2023/08/17 14:17:24;;;;;;;8.80;3.30;;;;;;;;;;5053037;28;20056;-33
2023/08/17 14:19:49;;;;;;;8.37;3.20;;;;;;;;;;5053569;28;20025;-34
2023/08/17 14:22:14;;;;;;;5.40;3.38;;;;;;;;;;5053287;28;20078;-34
2023/08/17 14:24:39;;;;;;;9.43;3.67;;;;;;;;;;5056138;28;20013;-34
2023/08/17 14:27:05;;;;;;;7.80;3.30;;;;;;;;;;5056012;28;20034;-35
2023/08/17 14:29:30;;;;;;;7.80;3.03;;;;;;;;;;5056760;28;20492;-34
2023/08/17 14:31:55;;;;;;;6.63;3.33;;;;;;;;;;5056974;28;20033;-35